Time;durP1;ratioP1;P1;durP2;ratioP2;P2;SDS_P1;SDS_P2;PMS_P1;PMS_P2;Temp;Humidity;BMP_temperature;BMP_pressure;BME280_temperature;BME280_humidity;BME280_pressure;Samples;Min_cycle;Max_cycle;Signal;HPM_P1;HPM_P2
2021/10/04 17:31:04;;;;;;;123.67;93.30;;;;;;;18.95;63.05;100491.63;2194355;76;980628;-63
2021/10/04 17:34:11;;;;;;;81.85;58.95;;;;;;;18.91;63.07;100492.83;2211615;78;27739;-64
2021/10/04 17:37:15;;;;;;;23.38;15.58;;;;;;;18.88;63.08;100493.58;2201057;79;28597;-62
2021/10/04 17:40:22;;;;;;;17.10;12.55;;;;;;;18.86;63.40;100500.98;2159675;78;32263;-69
2021/10/04 17:43:28;;;;;;;23.50;12.88;;;;;;;18.85;63.75;100503.33;2185128;79;32997;-65
2021/10/04 17:46:39;;;;;;;22.17;12.93;;;;;;;18.82;64.14;100503.94;2178983;78;28746;-62
2021/10/04 17:49:57;;;;;;;18.75;13.62;;;;;;;18.83;64.32;100504.82;2190314;78;27766;-65
2021/10/04 17:53:19;;;;;;;19.02;13.53;;;;;;;18.84;64.47;100501.13;2174595;78;27922;-63
2021/10/04 17:57:08;;;;;;;23.55;13.65;;;;;;;18.85;64.54;100498.78;2164221;80;28102;-65
2021/10/04 18:00:33;;;;;;;17.85;14.75;;;;;;;18.85;64.49;100494.70;2117320;78;28241;-64
2021/10/04 18:02:58;;;;;;;17.23;13.62;;;;;;;18.82;64.48;100497.16;2113157;79;27886;-65
2021/10/04 18:10:29;;;;;;;;;;;;;;;;;;;;;
2021/10/04 18:12:41;;;;;;;19.62;14.10;;;;;;;18.62;64.39;100492.00;1844019;95;27871;-64
2021/10/04 18:58:14;;;;;;;30.57;22.25;;;;;;;17.06;66.19;100516.97;1864732;94;28055;-61
2021/10/04 19:01:18;;;;;;;26.02;18.57;;;;;;;16.98;66.62;100516.68;1852288;94;28737;-61
2021/10/04 19:04:22;;;;;;;27.32;16.52;;;;;;;16.92;66.58;100519.78;1860335;94;31097;-63
2021/10/04 19:07:25;;;;;;;25.92;17.67;;;;;;;16.83;66.69;100515.44;1865713;93;32568;-63
2021/10/04 19:10:34;;;;;;;25.97;17.15;;;;;;;16.78;66.58;100512.70;1866417;94;28759;-61
2021/10/04 19:13:38;;;;;;;23.90;17.70;;;;;;;16.70;66.62;100518.16;1950499;87;27834;-61
2021/10/04 19:16:41;;;;;;;27.50;17.15;;;;;;;16.61;66.64;100512.08;1972006;88;29555;-62
2021/10/04 19:19:45;;;;;;;21.97;15.93;;;;;;;16.40;66.79;100511.27;1974324;88;31076;-61
2021/10/04 19:22:48;;;;;;;27.00;18.95;;;;;;;16.19;67.29;100486.62;1973553;88;34180;-62
2021/10/04 19:25:50;;;;;;;31.65;18.87;;;;;;;16.19;67.29;100486.62;1969925;89;30129;-62
2021/10/04 19:28:53;;;;;;;41.33;32.03;;;;;;;16.25;67.51;100502.39;1970666;88;27804;-61
2021/10/04 19:31:58;;;;;;;30.92;19.45;;;;;;;16.19;67.66;100496.55;1964897;88;28336;-62
2021/10/04 19:35:00;;;;;;;33.08;23.75;;;;;;;16.00;67.88;100472.66;1993597;86;31115;-61
2021/10/04 19:38:05;;;;;;;25.57;20.43;;;;;;;16.07;68.04;100486.98;2038331;86;33481;-62
2021/10/04 19:41:09;;;;;;;29.30;20.65;;;;;;;16.02;68.10;100488.29;2028754;86;30122;-61
2021/10/04 19:44:10;;;;;;;28.12;19.65;;;;;;;15.99;69.05;100487.15;2042601;86;27775;-61
2021/10/04 19:47:12;;;;;;;28.47;19.05;;;;;;;15.95;68.94;100491.91;2028443;86;29098;-62
2021/10/04 19:50:15;;;;;;;31.27;19.75;;;;;;;15.89;68.94;100482.86;2023893;86;31743;-62
2021/10/04 19:53:18;;;;;;;30.77;18.87;;;;;;;15.87;69.18;100484.33;2031241;86;33014;-62
2021/10/04 19:56:21;;;;;;;29.57;20.57;;;;;;;15.86;69.30;100481.72;2021319;86;28800;-62
2021/10/04 19:59:24;;;;;;;31.97;20.15;;;;;;;15.84;69.87;100481.80;1998903;86;27712;-62
2021/10/04 20:02:27;;;;;;;32.28;20.62;;;;;;;15.85;69.96;100476.81;2012492;86;29397;-62
2021/10/04 20:05:28;;;;;;;31.30;21.33;;;;;;;15.75;69.92;100455.41;2006150;86;31060;-63
2021/10/04 20:08:34;;;;;;;27.37;19.90;;;;;;;15.85;70.01;100480.87;2017530;86;33426;-61
2021/10/04 20:11:43;;;;;;;30.35;20.48;;;;;;;15.82;69.95;100483.74;2027551;86;28747;-62
2021/10/04 20:14:47;;;;;;;32.03;20.45;;;;;;;15.78;69.94;100484.45;2014260;85;27763;-61
2021/10/04 20:17:52;;;;;;;29.23;20.67;;;;;;;15.73;69.95;100483.89;2029999;86;28718;-61
2021/10/04 20:20:55;;;;;;;24.80;18.70;;;;;;;15.70;70.21;100481.89;2029778;86;31103;-62
2021/10/04 20:24:10;;;;;;;31.27;19.98;;;;;;;15.62;70.03;100475.16;2009271;86;32981;-61
2021/10/04 20:27:08;;;;;;;30.92;21.12;;;;;;;15.57;70.29;100475.95;2008147;87;29930;-61
2021/10/04 20:30:10;;;;;;;27.02;18.62;;;;;;;15.57;70.29;100475.95;2030225;86;27788;-61
2021/10/04 20:33:16;;;;;;;30.12;19.52;;;;;;;15.54;70.11;100473.95;2035258;87;29063;-61
2021/10/04 20:36:22;;;;;;;30.48;19.73;;;;;;;15.48;70.03;100473.89;2038424;84;31257;-61
2021/10/04 20:39:26;;;;;;;29.23;20.15;;;;;;;15.41;70.00;100472.09;1990304;87;33030;-62
2021/10/04 20:42:32;;;;;;;32.03;22.22;;;;;;;15.36;69.94;100478.77;1996331;88;29064;-63
2021/10/04 20:45:37;;;;;;;28.55;19.67;;;;;;;15.28;69.90;100476.09;2004112;87;27716;-62
2021/10/04 20:48:45;;;;;;;32.23;19.73;;;;;;;15.21;69.81;100480.65;2014735;86;28890;-62
2021/10/04 20:51:48;;;;;;;31.23;19.90;;;;;;;15.11;69.81;100481.27;2013905;87;31075;-61
2021/10/04 20:54:53;;;;;;;31.80;21.17;;;;;;;15.03;69.82;100476.84;1984999;88;33016;-61
2021/10/04 20:57:57;;;;;;;34.25;20.55;;;;;;;14.98;69.91;100489.76;1980412;87;29052;-61
2021/10/04 21:01:03;;;;;;;36.50;23.27;;;;;;;14.92;69.89;100491.53;2039558;86;27723;-59
2021/10/04 21:04:11;;;;;;;38.63;23.70;;;;;;;14.87;70.05;100488.64;2038432;86;28682;-59
2021/10/04 21:07:15;;;;;;;34.48;23.40;;;;;;;14.83;70.28;100478.16;2030003;86;31048;-60
2021/10/04 21:10:21;;;;;;;39.63;27.25;;;;;;;14.77;70.30;100482.58;2058192;85;33757;-59
2021/10/04 21:13:25;;;;;;;38.15;23.98;;;;;;;14.72;70.81;100482.42;2047879;85;29039;-60
2021/10/04 21:16:31;;;;;;;34.30;22.73;;;;;;;14.68;70.92;100490.78;2035960;84;27792;-60
2021/10/04 21:19:35;;;;;;;43.52;29.18;;;;;;;14.64;71.13;100492.78;2036419;85;28764;-61
2021/10/04 21:22:40;;;;;;;34.03;22.93;;;;;;;14.61;71.30;100493.47;2056807;85;31039;-60
2021/10/04 21:25:42;;;;;;;33.28;22.05;;;;;;;14.55;70.96;100488.84;2059015;85;32991;-60
2021/10/04 21:28:46;;;;;;;30.80;22.05;;;;;;;14.52;71.34;100490.38;2005968;85;29055;-59
2021/10/04 21:31:48;;;;;;;36.10;21.85;;;;;;;14.50;71.52;100483.36;2028064;87;27730;-60
2021/10/04 21:34:51;;;;;;;31.62;22.20;;;;;;;14.46;71.30;100480.00;2029452;86;29145;-60
2021/10/04 21:37:57;;;;;;;34.58;23.32;;;;;;;14.42;71.28;100472.57;2027287;86;31864;-60
2021/10/04 21:41:03;;;;;;;32.25;19.55;;;;;;;14.38;71.51;100474.22;2012667;87;33784;-60
2021/10/04 21:44:08;;;;;;;28.10;19.05;;;;;;;14.33;71.37;100469.58;2044704;86;29763;-60
2021/10/04 21:47:14;;;;;;;30.85;20.88;;;;;;;14.28;71.26;100468.53;2005486;87;27759;-61
2021/10/04 21:50:20;;;;;;;29.20;20.17;;;;;;;14.24;71.31;100471.91;2032246;86;28694;-61
2021/10/04 21:53:27;;;;;;;28.38;19.55;;;;;;;14.22;71.33;100468.94;2063792;84;31053;-60
2021/10/04 21:56:34;;;;;;;29.55;20.88;;;;;;;14.18;71.55;100462.84;2060599;84;32400;-61
2021/10/04 21:59:39;;;;;;;31.27;21.45;;;;;;;14.13;71.81;100456.41;2016676;87;29031;-60
2021/10/04 22:12:44;;;;;;;43.83;25.97;;;;;;;13.97;71.97;100461.89;2020446;87;33419;-60
2021/10/04 22:15:46;;;;;;;40.92;26.73;;;;;;;13.95;72.26;100450.80;2024356;87;34707;-60
2021/10/04 22:18:53;;;;;;;40.45;24.85;;;;;;;13.93;72.39;100444.18;1967448;89;27676;-60
2021/10/04 22:21:58;;;;;;;39.18;24.40;;;;;;;13.91;72.26;100442.05;2031635;86;28698;-60
2021/10/04 22:25:03;;;;;;;;;;;;;;;13.90;72.64;100443.51;2025167;86;31024;-60
2021/10/04 22:28:05;;;;;;;37.05;22.52;;;;;;;13.88;72.52;100442.23;2019604;87;33773;-60
2021/10/04 22:31:11;;;;;;;36.33;21.97;;;;;;;13.82;72.46;100441.25;2013972;88;29412;-60
2021/10/04 22:34:17;;;;;;;39.38;21.57;;;;;;;13.80;72.24;100442.70;2031395;86;27863;-60
2021/10/04 22:37:21;;;;;;;;;;;;;;;13.78;72.17;100443.77;2040747;86;27883;-60
2021/10/04 22:40:28;;;;;;;35.45;21.68;;;;;;;13.74;72.11;100437.69;2032576;86;31683;-61
2021/10/04 22:43:34;;;;;;;31.23;21.00;;;;;;;13.70;72.09;100437.51;2006876;87;33838;-60
2021/10/04 22:46:37;;;;;;;36.53;22.70;;;;;;;13.66;71.98;100431.91;2007024;86;29755;-60
2021/10/04 22:49:38;;;;;;;38.95;23.77;;;;;;;13.61;72.07;100416.52;2008803;86;27653;-61
2021/10/04 22:52:45;;;;;;;33.33;21.45;;;;;;;13.57;72.44;100416.33;2007189;86;29374;-60
2021/10/04 22:55:47;;;;;;;32.03;20.62;;;;;;;13.53;72.25;100416.97;2026222;87;31069;-59
2021/10/04 22:58:53;;;;;;;35.40;20.77;;;;;;;13.49;72.45;100424.38;2017130;87;33080;-60
2021/10/04 23:01:58;;;;;;;30.65;20.88;;;;;;;13.49;72.68;100428.41;2019577;87;29267;-60
2021/10/04 23:05:04;;;;;;;27.60;21.55;;;;;;;13.50;72.93;100428.80;2012072;86;27812;-60
2021/10/04 23:08:10;;;;;;;33.38;23.22;;;;;;;13.48;73.07;100433.41;2000649;86;28666;-60
2021/10/04 23:11:19;;;;;;;33.92;23.80;;;;;;;13.48;73.40;100428.02;2001095;87;31755;-60
2021/10/04 23:14:18;;;;;;;29.63;19.92;;;;;;;13.48;73.58;100427.17;2008443;86;33075;-59
2021/10/04 23:17:24;;;;;;;31.35;22.52;;;;;;;13.46;73.36;100419.66;1989567;88;29118;-60
2021/10/04 23:20:29;;;;;;;31.10;21.80;;;;;;;13.46;73.46;100425.90;2011767;87;27659;-60
2021/10/04 23:23:33;;;;;;;;;;;;;;;13.47;73.61;100428.13;2007060;86;28711;-60
2021/10/04 23:26:39;;;;;;;35.58;22.05;;;;;;;13.47;73.38;100422.75;2010593;87;31901;-60
2021/10/04 23:29:43;;;;;;;35.92;23.45;;;;;;;13.40;73.26;100416.86;2013027;86;32959;-60
2021/10/04 23:32:49;;;;;;;32.90;22.00;;;;;;;13.38;73.50;100419.59;1990901;87;37257;-61
2021/10/04 23:35:54;;;;;;;28.95;20.95;;;;;;;13.35;73.25;100405.47;2022645;85;27734;-61
2021/10/04 23:39:00;;;;;;;40.67;24.12;;;;;;;13.31;73.07;100401.22;2021624;85;28706;-60
2021/10/04 23:42:06;;;;;;;27.98;18.92;;;;;;;13.26;73.40;100403.31;2033916;86;31662;-60
2021/10/04 23:45:12;;;;;;;38.65;23.83;;;;;;;13.25;73.27;100405.61;2001611;87;33021;-60
2021/10/04 23:48:16;;;;;;;31.23;21.15;;;;;;;13.24;73.87;100403.41;2025991;87;29050;-60
2021/10/04 23:51:22;;;;;;;35.45;24.25;;;;;;;13.25;74.03;100414.56;2046110;86;27817;-60
2021/10/04 23:54:28;;;;;;;37.23;23.90;;;;;;;13.24;74.38;100416.86;2031382;86;29482;-59
2021/10/04 23:57:33;;;;;;;34.13;21.20;;;;;;;13.20;74.30;100410.80;2026154;86;31035;-60
